sensor_id;sensor_type;location;lat;lon;timestamp;P1;durP1;ratioP1;P2;durP2;ratioP2
846;SDS011;410;48.954;9.474;2023-10-31T00:01:38;1.90;;;1.30;;
846;SDS011;410;48.954;9.474;2023-10-31T00:03:42;4.70;;;1.40;;
846;SDS011;410;48.954;9.474;2023-10-31T00:06:00;1.77;;;1.27;;
846;SDS011;410;48.954;9.474;2023-10-31T00:08:23;2.47;;;1.50;;
846;SDS011;410;48.954;9.474;2023-10-31T00:10:46;1.70;;;1.10;;
846;SDS011;410;48.954;9.474;2023-10-31T00:13:11;1.50;;;1.00;;
846;SDS011;410;48.954;9.474;2023-10-31T00:15:15;1.33;;;1.00;;
846;SDS011;410;48.954;9.474;2023-10-31T00:17:19;1.80;;;1.00;;
846;SDS011;410;48.954;9.474;2023-10-31T00:19:23;2.33;;;1.00;;
846;SDS011;410;48.954;9.474;2023-10-31T00:21:28;2.20;;;0.80;;
846;SDS011;410;48.954;9.474;2023-10-31T00:23:32;1.60;;;0.93;;
846;SDS011;410;48.954;9.474;2023-10-31T00:25:37;2.43;;;0.90;;
846;SDS011;410;48.954;9.474;2023-10-31T00:27:42;3.53;;;1.27;;
846;SDS011;410;48.954;9.474;2023-10-31T00:29:48;4.47;;;1.00;;
846;SDS011;410;48.954;9.474;2023-10-31T00:32:04;1.97;;;1.03;;
846;SDS011;410;48.954;9.474;2023-10-31T00:34:15;1.87;;;1.00;;
846;SDS011;410;48.954;9.474;2023-10-31T00:36:21;1.67;;;0.90;;
846;SDS011;410;48.954;9.474;2023-10-31T00:38:27;1.67;;;0.83;;
846;SDS011;410;48.954;9.474;2023-10-31T00:40:32;1.47;;;0.70;;
846;SDS011;410;48.954;9.474;2023-10-31T00:42:40;1.87;;;0.80;;
846;SDS011;410;48.954;9.474;2023-10-31T00:44:45;1.50;;;0.83;;
846;SDS011;410;48.954;9.474;2023-10-31T00:46:51;1.30;;;0.83;;
846;SDS011;410;48.954;9.474;2023-10-31T00:49:00;1.27;;;0.80;;
846;SDS011;410;48.954;9.474;2023-10-31T00:51:04;1.60;;;0.80;;
846;SDS011;410;48.954;9.474;2023-10-31T00:53:15;1.50;;;0.90;;
846;SDS011;410;48.954;9.474;2023-10-31T00:55:38;1.97;;;1.00;;
846;SDS011;410;48.954;9.474;2023-10-31T00:57:44;1.73;;;0.70;;
846;SDS011;410;48.954;9.474;2023-10-31T00:59:51;1.17;;;0.80;;
846;SDS011;410;48.954;9.474;2023-10-31T01:01:58;1.30;;;0.60;;
846;SDS011;410;48.954;9.474;2023-10-31T01:04:04;1.17;;;0.67;;
846;SDS011;410;48.954;9.474;2023-10-31T01:06:09;1.20;;;0.70;;
846;SDS011;410;48.954;9.474;2023-10-31T01:08:32;1.20;;;0.80;;
846;SDS011;410;48.954;9.474;2023-10-31T01:10:55;2.37;;;1.03;;
846;SDS011;410;48.954;9.474;2023-10-31T01:12:59;1.37;;;0.80;;
846;SDS011;410;48.954;9.474;2023-10-31T01:15:12;3.10;;;0.70;;
846;SDS011;410;48.954;9.474;2023-10-31T01:17:36;1.30;;;0.70;;
846;SDS011;410;48.954;9.474;2023-10-31T01:19:45;1.13;;;0.73;;
846;SDS011;410;48.954;9.474;2023-10-31T01:22:01;1.87;;;0.80;;
846;SDS011;410;48.954;9.474;2023-10-31T01:24:07;1.13;;;0.67;;
846;SDS011;410;48.954;9.474;2023-10-31T01:26:12;1.20;;;0.80;;
846;SDS011;410;48.954;9.474;2023-10-31T01:28:21;1.30;;;0.70;;
846;SDS011;410;48.954;9.474;2023-10-31T01:30:40;2.47;;;0.63;;
846;SDS011;410;48.954;9.474;2023-10-31T01:32:47;1.20;;;0.60;;
846;SDS011;410;48.954;9.474;2023-10-31T01:34:50;2.40;;;0.70;;
846;SDS011;410;48.954;9.474;2023-10-31T01:36:54;2.60;;;0.70;;
846;SDS011;410;48.954;9.474;2023-10-31T01:38:56;2.30;;;0.70;;
846;SDS011;410;48.954;9.474;2023-10-31T01:40:59;3.47;;;0.90;;
846;SDS011;410;48.954;9.474;2023-10-31T01:43:02;1.93;;;0.90;;
846;SDS011;410;48.954;9.474;2023-10-31T01:45:06;1.10;;;0.60;;
846;SDS011;410;48.954;9.474;2023-10-31T01:47:11;1.20;;;0.77;;
846;SDS011;410;48.954;9.474;2023-10-31T01:49:16;4.07;;;0.80;;
846;SDS011;410;48.954;9.474;2023-10-31T01:51:18;2.10;;;0.90;;
846;SDS011;410;48.954;9.474;2023-10-31T01:53:22;2.37;;;0.83;;
846;SDS011;410;48.954;9.474;2023-10-31T01:55:25;1.60;;;0.80;;
846;SDS011;410;48.954;9.474;2023-10-31T01:57:31;1.63;;;0.80;;
846;SDS011;410;48.954;9.474;2023-10-31T01:59:35;3.20;;;0.83;;
846;SDS011;410;48.954;9.474;2023-10-31T02:01:38;1.40;;;0.80;;
846;SDS011;410;48.954;9.474;2023-10-31T02:03:43;1.40;;;0.87;;
846;SDS011;410;48.954;9.474;2023-10-31T02:05:49;2.70;;;0.90;;
846;SDS011;410;48.954;9.474;2023-10-31T02:07:55;1.40;;;0.83;;
846;SDS011;410;48.954;9.474;2023-10-31T02:09:57;1.40;;;0.70;;
846;SDS011;410;48.954;9.474;2023-10-31T02:12:01;1.93;;;0.83;;
846;SDS011;410;48.954;9.474;2023-10-31T02:14:04;1.50;;;0.80;;
846;SDS011;410;48.954;9.474;2023-10-31T02:16:08;4.10;;;0.80;;
846;SDS011;410;48.954;9.474;2023-10-31T02:18:10;2.10;;;1.10;;
846;SDS011;410;48.954;9.474;2023-10-31T02:20:14;1.40;;;0.83;;
846;SDS011;410;48.954;9.474;2023-10-31T02:22:21;2.03;;;0.67;;
846;SDS011;410;48.954;9.474;2023-10-31T02:24:24;2.67;;;0.87;;
846;SDS011;410;48.954;9.474;2023-10-31T02:26:30;1.20;;;0.70;;
846;SDS011;410;48.954;9.474;2023-10-31T02:28:33;1.47;;;0.70;;
846;SDS011;410;48.954;9.474;2023-10-31T02:30:37;2.60;;;0.77;;
846;SDS011;410;48.954;9.474;2023-10-31T02:32:39;3.13;;;0.90;;
846;SDS011;410;48.954;9.474;2023-10-31T02:34:44;1.30;;;0.80;;
846;SDS011;410;48.954;9.474;2023-10-31T02:36:48;2.13;;;0.93;;
846;SDS011;410;48.954;9.474;2023-10-31T02:38:53;2.33;;;1.00;;
846;SDS011;410;48.954;9.474;2023-10-31T02:40:56;1.30;;;0.80;;
846;SDS011;410;48.954;9.474;2023-10-31T02:42:59;2.43;;;0.90;;
846;SDS011;410;48.954;9.474;2023-10-31T02:45:04;1.60;;;0.73;;
846;SDS011;410;48.954;9.474;2023-10-31T02:47:08;3.43;;;0.80;;
846;SDS011;410;48.954;9.474;2023-10-31T02:49:11;1.10;;;0.60;;
846;SDS011;410;48.954;9.474;2023-10-31T02:51:15;1.40;;;0.70;;
846;SDS011;410;48.954;9.474;2023-10-31T02:53:23;1.20;;;0.70;;
846;SDS011;410;48.954;9.474;2023-10-31T02:55:28;1.40;;;0.50;;
846;SDS011;410;48.954;9.474;2023-10-31T02:57:31;1.13;;;0.70;;
846;SDS011;410;48.954;9.474;2023-10-31T02:59:34;2.67;;;0.93;;
846;SDS011;410;48.954;9.474;2023-10-31T03:01:38;2.60;;;1.03;;
846;SDS011;410;48.954;9.474;2023-10-31T03:03:42;1.23;;;0.73;;
846;SDS011;410;48.954;9.474;2023-10-31T03:05:45;2.23;;;0.77;;
846;SDS011;410;48.954;9.474;2023-10-31T03:07:48;1.50;;;0.70;;
846;SDS011;410;48.954;9.474;2023-10-31T03:09:51;2.00;;;0.90;;
846;SDS011;410;48.954;9.474;2023-10-31T03:11:57;2.13;;;0.70;;
846;SDS011;410;48.954;9.474;2023-10-31T03:14:01;1.30;;;0.77;;
846;SDS011;410;48.954;9.474;2023-10-31T03:16:05;4.53;;;0.80;;
846;SDS011;410;48.954;9.474;2023-10-31T03:18:09;1.50;;;0.60;;
846;SDS011;410;48.954;9.474;2023-10-31T03:20:13;3.70;;;0.90;;
846;SDS011;410;48.954;9.474;2023-10-31T03:22:16;1.50;;;0.87;;
846;SDS011;410;48.954;9.474;2023-10-31T03:24:20;1.10;;;0.67;;
846;SDS011;410;48.954;9.474;2023-10-31T03:26:23;2.30;;;1.00;;
846;SDS011;410;48.954;9.474;2023-10-31T03:28:28;2.60;;;0.83;;
846;SDS011;410;48.954;9.474;2023-10-31T03:30:31;1.47;;;0.80;;
846;SDS011;410;48.954;9.474;2023-10-31T03:32:35;1.63;;;0.87;;
846;SDS011;410;48.954;9.474;2023-10-31T03:34:38;1.70;;;0.90;;
846;SDS011;410;48.954;9.474;2023-10-31T03:36:44;2.87;;;1.00;;
846;SDS011;410;48.954;9.474;2023-10-31T03:38:48;1.80;;;0.87;;
846;SDS011;410;48.954;9.474;2023-10-31T03:40:53;1.90;;;1.10;;
846;SDS011;410;48.954;9.474;2023-10-31T03:42:56;3.70;;;0.77;;
846;SDS011;410;48.954;9.474;2023-10-31T03:45:01;1.87;;;0.80;;
846;SDS011;410;48.954;9.474;2023-10-31T03:47:04;2.07;;;1.00;;
846;SDS011;410;48.954;9.474;2023-10-31T03:49:08;2.00;;;0.70;;
846;SDS011;410;48.954;9.474;2023-10-31T03:51:16;1.30;;;0.90;;
846;SDS011;410;48.954;9.474;2023-10-31T03:53:20;1.90;;;0.90;;
846;SDS011;410;48.954;9.474;2023-10-31T03:55:23;3.00;;;1.70;;
846;SDS011;410;48.954;9.474;2023-10-31T03:57:26;4.33;;;2.60;;
846;SDS011;410;48.954;9.474;2023-10-31T03:59:29;5.07;;;2.27;;
846;SDS011;410;48.954;9.474;2023-10-31T04:01:35;2.90;;;1.80;;
846;SDS011;410;48.954;9.474;2023-10-31T04:03:38;2.60;;;1.20;;
846;SDS011;410;48.954;9.474;2023-10-31T04:05:42;2.53;;;1.20;;
846;SDS011;410;48.954;9.474;2023-10-31T04:07:46;1.77;;;0.90;;
846;SDS011;410;48.954;9.474;2023-10-31T04:09:49;1.83;;;0.87;;
846;SDS011;410;48.954;9.474;2023-10-31T04:11:55;1.67;;;0.90;;
846;SDS011;410;48.954;9.474;2023-10-31T04:13:57;1.67;;;0.77;;
846;SDS011;410;48.954;9.474;2023-10-31T04:16:01;1.47;;;0.83;;
846;SDS011;410;48.954;9.474;2023-10-31T04:18:07;1.60;;;1.00;;
846;SDS011;410;48.954;9.474;2023-10-31T04:20:11;2.33;;;0.80;;
846;SDS011;410;48.954;9.474;2023-10-31T04:22:15;2.90;;;1.13;;
846;SDS011;410;48.954;9.474;2023-10-31T04:24:18;1.43;;;0.70;;
846;SDS011;410;48.954;9.474;2023-10-31T04:26:22;1.50;;;0.80;;
846;SDS011;410;48.954;9.474;2023-10-31T04:28:25;2.10;;;1.10;;
846;SDS011;410;48.954;9.474;2023-10-31T04:30:29;2.33;;;1.17;;
846;SDS011;410;48.954;9.474;2023-10-31T04:32:32;1.63;;;1.07;;
846;SDS011;410;48.954;9.474;2023-10-31T04:34:37;3.90;;;1.00;;
846;SDS011;410;48.954;9.474;2023-10-31T04:36:41;2.60;;;0.80;;
846;SDS011;410;48.954;9.474;2023-10-31T04:38:44;1.50;;;0.80;;
846;SDS011;410;48.954;9.474;2023-10-31T04:40:48;1.30;;;0.60;;
846;SDS011;410;48.954;9.474;2023-10-31T04:42:51;2.47;;;0.90;;
846;SDS011;410;48.954;9.474;2023-10-31T04:44:55;1.30;;;0.60;;
846;SDS011;410;48.954;9.474;2023-10-31T04:46:59;1.60;;;0.70;;
846;SDS011;410;48.954;9.474;2023-10-31T04:49:04;1.63;;;0.80;;
846;SDS011;410;48.954;9.474;2023-10-31T04:51:09;1.93;;;0.80;;
846;SDS011;410;48.954;9.474;2023-10-31T04:53:12;1.37;;;0.80;;
846;SDS011;410;48.954;9.474;2023-10-31T04:55:16;1.97;;;0.70;;
846;SDS011;410;48.954;9.474;2023-10-31T04:57:19;2.00;;;0.93;;
846;SDS011;410;48.954;9.474;2023-10-31T04:59:24;1.73;;;0.70;;
846;SDS011;410;48.954;9.474;2023-10-31T05:01:28;2.13;;;0.60;;
846;SDS011;410;48.954;9.474;2023-10-31T05:03:31;1.80;;;0.60;;
846;SDS011;410;48.954;9.474;2023-10-31T05:05:34;1.53;;;0.70;;
846;SDS011;410;48.954;9.474;2023-10-31T05:07:39;2.20;;;0.77;;
846;SDS011;410;48.954;9.474;2023-10-31T05:09:43;1.80;;;1.10;;
846;SDS011;410;48.954;9.474;2023-10-31T05:11:48;1.43;;;0.80;;
846;SDS011;410;48.954;9.474;2023-10-31T05:13:52;1.07;;;0.70;;
846;SDS011;410;48.954;9.474;2023-10-31T05:15:55;1.33;;;0.97;;
846;SDS011;410;48.954;9.474;2023-10-31T05:17:59;1.20;;;0.60;;
846;SDS011;410;48.954;9.474;2023-10-31T05:20:03;2.73;;;0.70;;
846;SDS011;410;48.954;9.474;2023-10-31T05:22:06;2.17;;;0.87;;
846;SDS011;410;48.954;9.474;2023-10-31T05:24:10;1.50;;;0.77;;
846;SDS011;410;48.954;9.474;2023-10-31T05:26:15;2.07;;;0.77;;
846;SDS011;410;48.954;9.474;2023-10-31T05:28:19;1.40;;;0.80;;
846;SDS011;410;48.954;9.474;2023-10-31T05:30:23;1.70;;;0.97;;
846;SDS011;410;48.954;9.474;2023-10-31T05:32:27;2.47;;;1.00;;
846;SDS011;410;48.954;9.474;2023-10-31T05:34:30;1.20;;;0.83;;
846;SDS011;410;48.954;9.474;2023-10-31T05:36:34;1.30;;;0.70;;
846;SDS011;410;48.954;9.474;2023-10-31T05:38:36;1.40;;;0.67;;
846;SDS011;410;48.954;9.474;2023-10-31T05:40:41;1.30;;;0.70;;
846;SDS011;410;48.954;9.474;2023-10-31T05:42:43;2.00;;;0.80;;
846;SDS011;410;48.954;9.474;2023-10-31T05:44:47;1.50;;;0.70;;
846;SDS011;410;48.954;9.474;2023-10-31T05:46:51;1.37;;;0.70;;
846;SDS011;410;48.954;9.474;2023-10-31T05:48:54;1.23;;;0.70;;
846;SDS011;410;48.954;9.474;2023-10-31T05:50:57;1.30;;;0.80;;
846;SDS011;410;48.954;9.474;2023-10-31T05:53:00;2.83;;;1.00;;
846;SDS011;410;48.954;9.474;2023-10-31T05:55:04;2.50;;;0.63;;
846;SDS011;410;48.954;9.474;2023-10-31T05:57:11;2.43;;;0.90;;
846;SDS011;410;48.954;9.474;2023-10-31T05:59:15;1.30;;;0.80;;
846;SDS011;410;48.954;9.474;2023-10-31T06:01:18;1.60;;;0.80;;
846;SDS011;410;48.954;9.474;2023-10-31T06:03:21;3.47;;;0.93;;
846;SDS011;410;48.954;9.474;2023-10-31T06:05:25;1.30;;;0.80;;
846;SDS011;410;48.954;9.474;2023-10-31T06:07:28;1.47;;;0.80;;
846;SDS011;410;48.954;9.474;2023-10-31T06:09:34;2.80;;;0.83;;
846;SDS011;410;48.954;9.474;2023-10-31T06:11:39;1.90;;;1.00;;
846;SDS011;410;48.954;9.474;2023-10-31T06:13:46;1.40;;;0.90;;
846;SDS011;410;48.954;9.474;2023-10-31T06:15:49;2.73;;;0.87;;
846;SDS011;410;48.954;9.474;2023-10-31T06:17:54;1.40;;;0.90;;
846;SDS011;410;48.954;9.474;2023-10-31T06:19:57;1.30;;;0.80;;
846;SDS011;410;48.954;9.474;2023-10-31T06:22:02;2.10;;;1.03;;
846;SDS011;410;48.954;9.474;2023-10-31T06:24:07;1.80;;;1.30;;
846;SDS011;410;48.954;9.474;2023-10-31T06:26:11;1.30;;;0.73;;
846;SDS011;410;48.954;9.474;2023-10-31T06:28:15;1.43;;;0.77;;
846;SDS011;410;48.954;9.474;2023-10-31T06:30:20;1.40;;;0.80;;
846;SDS011;410;48.954;9.474;2023-10-31T06:32:29;3.00;;;0.90;;
846;SDS011;410;48.954;9.474;2023-10-31T06:34:33;2.00;;;0.80;;
846;SDS011;410;48.954;9.474;2023-10-31T06:36:36;1.70;;;0.80;;
846;SDS011;410;48.954;9.474;2023-10-31T06:38:40;5.37;;;0.80;;
846;SDS011;410;48.954;9.474;2023-10-31T06:40:43;1.20;;;0.67;;
846;SDS011;410;48.954;9.474;2023-10-31T06:42:47;0.97;;;0.60;;
846;SDS011;410;48.954;9.474;2023-10-31T06:44:51;1.37;;;0.83;;
846;SDS011;410;48.954;9.474;2023-10-31T06:46:57;1.40;;;0.77;;
846;SDS011;410;48.954;9.474;2023-10-31T06:49:03;1.63;;;0.70;;
846;SDS011;410;48.954;9.474;2023-10-31T06:51:07;1.37;;;0.70;;
846;SDS011;410;48.954;9.474;2023-10-31T06:53:09;1.40;;;0.80;;
846;SDS011;410;48.954;9.474;2023-10-31T06:55:14;2.60;;;1.20;;
846;SDS011;410;48.954;9.474;2023-10-31T06:57:18;1.90;;;0.90;;
846;SDS011;410;48.954;9.474;2023-10-31T06:59:22;2.33;;;0.87;;
846;SDS011;410;48.954;9.474;2023-10-31T07:01:26;3.77;;;1.13;;
846;SDS011;410;48.954;9.474;2023-10-31T07:03:32;2.63;;;1.00;;
846;SDS011;410;48.954;9.474;2023-10-31T07:05:36;2.40;;;1.17;;
846;SDS011;410;48.954;9.474;2023-10-31T07:07:40;3.40;;;1.30;;
846;SDS011;410;48.954;9.474;2023-10-31T07:09:44;1.40;;;0.90;;
846;SDS011;410;48.954;9.474;2023-10-31T07:11:48;1.53;;;1.00;;
846;SDS011;410;48.954;9.474;2023-10-31T07:13:52;1.67;;;1.17;;
846;SDS011;410;48.954;9.474;2023-10-31T07:15:55;1.40;;;1.00;;
846;SDS011;410;48.954;9.474;2023-10-31T07:17:58;2.20;;;1.00;;
846;SDS011;410;48.954;9.474;2023-10-31T07:20:04;1.80;;;0.90;;
846;SDS011;410;48.954;9.474;2023-10-31T07:22:08;3.20;;;1.00;;
846;SDS011;410;48.954;9.474;2023-10-31T07:24:12;1.50;;;0.70;;
846;SDS011;410;48.954;9.474;2023-10-31T07:26:15;1.47;;;0.90;;
846;SDS011;410;48.954;9.474;2023-10-31T07:28:18;1.40;;;0.70;;
846;SDS011;410;48.954;9.474;2023-10-31T07:30:21;1.80;;;0.90;;
846;SDS011;410;48.954;9.474;2023-10-31T07:32:25;1.50;;;0.87;;
846;SDS011;410;48.954;9.474;2023-10-31T07:34:29;1.87;;;0.70;;
846;SDS011;410;48.954;9.474;2023-10-31T07:36:33;2.67;;;0.80;;
846;SDS011;410;48.954;9.474;2023-10-31T07:38:38;2.20;;;0.80;;
846;SDS011;410;48.954;9.474;2023-10-31T07:40:41;1.40;;;0.83;;
846;SDS011;410;48.954;9.474;2023-10-31T07:42:48;1.30;;;0.60;;
846;SDS011;410;48.954;9.474;2023-10-31T07:44:51;2.23;;;0.70;;
846;SDS011;410;48.954;9.474;2023-10-31T07:46:55;2.50;;;0.70;;
846;SDS011;410;48.954;9.474;2023-10-31T07:48:59;10.13;;;1.00;;
846;SDS011;410;48.954;9.474;2023-10-31T07:51:04;1.93;;;0.80;;
846;SDS011;410;48.954;9.474;2023-10-31T07:53:09;1.60;;;1.10;;
846;SDS011;410;48.954;9.474;2023-10-31T07:55:13;2.77;;;0.90;;
846;SDS011;410;48.954;9.474;2023-10-31T07:57:22;1.70;;;0.97;;
846;SDS011;410;48.954;9.474;2023-10-31T07:59:25;1.63;;;0.97;;
846;SDS011;410;48.954;9.474;2023-10-31T08:01:29;3.23;;;1.00;;
846;SDS011;410;48.954;9.474;2023-10-31T08:03:32;2.10;;;0.90;;
846;SDS011;410;48.954;9.474;2023-10-31T08:05:36;2.80;;;1.00;;
846;SDS011;410;48.954;9.474;2023-10-31T08:07:39;2.60;;;1.00;;
846;SDS011;410;48.954;9.474;2023-10-31T08:09:44;2.17;;;1.00;;
846;SDS011;410;48.954;9.474;2023-10-31T08:11:48;1.33;;;0.90;;
846;SDS011;410;48.954;9.474;2023-10-31T08:13:51;3.00;;;0.80;;
846;SDS011;410;48.954;9.474;2023-10-31T08:15:55;1.97;;;0.83;;
846;SDS011;410;48.954;9.474;2023-10-31T08:17:59;1.80;;;0.80;;
846;SDS011;410;48.954;9.474;2023-10-31T08:20:03;2.00;;;0.97;;
846;SDS011;410;48.954;9.474;2023-10-31T08:22:07;2.00;;;0.83;;
846;SDS011;410;48.954;9.474;2023-10-31T08:24:11;3.43;;;1.33;;
846;SDS011;410;48.954;9.474;2023-10-31T08:26:17;3.00;;;1.07;;
846;SDS011;410;48.954;9.474;2023-10-31T08:28:21;1.73;;;1.00;;
846;SDS011;410;48.954;9.474;2023-10-31T08:30:25;1.60;;;1.03;;
846;SDS011;410;48.954;9.474;2023-10-31T08:32:29;2.63;;;1.30;;
846;SDS011;410;48.954;9.474;2023-10-31T08:34:33;1.80;;;1.07;;
846;SDS011;410;48.954;9.474;2023-10-31T08:36:36;1.93;;;1.10;;
846;SDS011;410;48.954;9.474;2023-10-31T08:38:41;3.10;;;1.00;;
846;SDS011;410;48.954;9.474;2023-10-31T08:40:45;1.43;;;1.10;;
846;SDS011;410;48.954;9.474;2023-10-31T08:42:52;2.80;;;1.20;;
846;SDS011;410;48.954;9.474;2023-10-31T08:44:57;6.83;;;1.30;;
846;SDS011;410;48.954;9.474;2023-10-31T08:47:00;3.00;;;1.17;;
846;SDS011;410;48.954;9.474;2023-10-31T08:49:04;2.20;;;1.00;;
846;SDS011;410;48.954;9.474;2023-10-31T08:51:08;1.60;;;0.93;;
846;SDS011;410;48.954;9.474;2023-10-31T08:53:12;1.40;;;0.73;;
846;SDS011;410;48.954;9.474;2023-10-31T08:55:16;1.73;;;0.90;;
846;SDS011;410;48.954;9.474;2023-10-31T08:57:19;2.33;;;0.97;;
846;SDS011;410;48.954;9.474;2023-10-31T08:59:26;1.90;;;0.90;;
846;SDS011;410;48.954;9.474;2023-10-31T09:01:28;1.20;;;0.70;;
846;SDS011;410;48.954;9.474;2023-10-31T09:03:33;1.67;;;0.70;;
846;SDS011;410;48.954;9.474;2023-10-31T09:05:36;1.40;;;0.77;;
846;SDS011;410;48.954;9.474;2023-10-31T09:07:41;2.00;;;0.80;;
846;SDS011;410;48.954;9.474;2023-10-31T09:09:45;1.87;;;0.93;;
846;SDS011;410;48.954;9.474;2023-10-31T09:11:49;1.53;;;0.90;;
846;SDS011;410;48.954;9.474;2023-10-31T09:13:53;2.20;;;1.00;;
846;SDS011;410;48.954;9.474;2023-10-31T09:15:59;1.93;;;1.00;;
846;SDS011;410;48.954;9.474;2023-10-31T09:18:03;2.10;;;0.97;;
846;SDS011;410;48.954;9.474;2023-10-31T09:20:08;1.67;;;0.90;;
846;SDS011;410;48.954;9.474;2023-10-31T09:22:11;3.63;;;1.77;;
846;SDS011;410;48.954;9.474;2023-10-31T09:24:16;1.80;;;1.00;;
846;SDS011;410;48.954;9.474;2023-10-31T09:26:20;2.63;;;1.00;;
846;SDS011;410;48.954;9.474;2023-10-31T09:28:24;2.23;;;1.00;;
846;SDS011;410;48.954;9.474;2023-10-31T09:30:28;2.60;;;0.87;;
846;SDS011;410;48.954;9.474;2023-10-31T09:32:31;2.83;;;1.07;;
846;SDS011;410;48.954;9.474;2023-10-31T09:34:35;3.97;;;1.00;;
846;SDS011;410;48.954;9.474;2023-10-31T09:36:39;3.40;;;1.10;;
846;SDS011;410;48.954;9.474;2023-10-31T09:38:44;3.97;;;1.53;;
846;SDS011;410;48.954;9.474;2023-10-31T09:40:48;1.60;;;0.90;;
846;SDS011;410;48.954;9.474;2023-10-31T09:42:52;1.37;;;0.80;;
846;SDS011;410;48.954;9.474;2023-10-31T09:44:56;4.40;;;1.10;;
846;SDS011;410;48.954;9.474;2023-10-31T09:47:00;3.80;;;1.40;;
846;SDS011;410;48.954;9.474;2023-10-31T09:49:05;2.30;;;1.20;;
846;SDS011;410;48.954;9.474;2023-10-31T09:51:10;4.07;;;1.03;;
846;SDS011;410;48.954;9.474;2023-10-31T09:53:15;2.70;;;1.00;;
846;SDS011;410;48.954;9.474;2023-10-31T09:55:20;2.97;;;1.13;;
846;SDS011;410;48.954;9.474;2023-10-31T09:57:26;1.73;;;0.73;;
846;SDS011;410;48.954;9.474;2023-10-31T09:59:30;2.80;;;0.93;;
846;SDS011;410;48.954;9.474;2023-10-31T10:01:35;3.07;;;1.17;;
846;SDS011;410;48.954;9.474;2023-10-31T10:03:38;2.73;;;1.10;;
846;SDS011;410;48.954;9.474;2023-10-31T10:05:44;2.67;;;1.37;;
846;SDS011;410;48.954;9.474;2023-10-31T10:07:49;2.30;;;1.00;;
846;SDS011;410;48.954;9.474;2023-10-31T10:09:52;4.93;;;1.30;;
846;SDS011;410;48.954;9.474;2023-10-31T10:11:56;3.70;;;1.30;;
846;SDS011;410;48.954;9.474;2023-10-31T10:13:58;2.90;;;1.30;;
846;SDS011;410;48.954;9.474;2023-10-31T10:16:02;3.33;;;1.10;;
846;SDS011;410;48.954;9.474;2023-10-31T10:18:07;3.87;;;1.03;;
846;SDS011;410;48.954;9.474;2023-10-31T10:20:11;2.73;;;1.03;;
846;SDS011;410;48.954;9.474;2023-10-31T10:22:16;3.90;;;1.10;;
846;SDS011;410;48.954;9.474;2023-10-31T10:24:23;4.33;;;1.10;;
846;SDS011;410;48.954;9.474;2023-10-31T10:26:27;2.47;;;1.17;;
846;SDS011;410;48.954;9.474;2023-10-31T10:28:31;2.40;;;1.10;;
846;SDS011;410;48.954;9.474;2023-10-31T10:30:36;4.53;;;1.20;;
846;SDS011;410;48.954;9.474;2023-10-31T10:32:40;2.53;;;1.23;;
846;SDS011;410;48.954;9.474;2023-10-31T10:34:44;3.27;;;1.20;;
846;SDS011;410;48.954;9.474;2023-10-31T10:36:48;2.70;;;1.10;;
846;SDS011;410;48.954;9.474;2023-10-31T10:38:56;2.37;;;1.23;;
846;SDS011;410;48.954;9.474;2023-10-31T10:41:02;3.13;;;1.37;;
846;SDS011;410;48.954;9.474;2023-10-31T10:43:12;4.13;;;1.30;;
846;SDS011;410;48.954;9.474;2023-10-31T10:45:16;1.93;;;1.00;;
846;SDS011;410;48.954;9.474;2023-10-31T10:47:21;3.70;;;1.03;;
846;SDS011;410;48.954;9.474;2023-10-31T10:49:25;2.27;;;1.00;;
846;SDS011;410;48.954;9.474;2023-10-31T10:51:33;2.30;;;0.93;;
846;SDS011;410;48.954;9.474;2023-10-31T10:53:44;3.03;;;0.93;;
846;SDS011;410;48.954;9.474;2023-10-31T10:55:56;2.07;;;0.80;;
846;SDS011;410;48.954;9.474;2023-10-31T10:58:04;2.17;;;1.20;;
846;SDS011;410;48.954;9.474;2023-10-31T11:00:09;2.03;;;1.23;;
846;SDS011;410;48.954;9.474;2023-10-31T11:02:15;2.83;;;0.90;;
846;SDS011;410;48.954;9.474;2023-10-31T11:04:19;3.57;;;1.30;;
846;SDS011;410;48.954;9.474;2023-10-31T11:06:23;6.00;;;1.40;;
846;SDS011;410;48.954;9.474;2023-10-31T11:08:27;2.40;;;1.10;;
846;SDS011;410;48.954;9.474;2023-10-31T11:10:31;3.23;;;1.20;;
846;SDS011;410;48.954;9.474;2023-10-31T11:12:38;3.83;;;1.30;;
846;SDS011;410;48.954;9.474;2023-10-31T11:14:42;2.30;;;1.10;;
846;SDS011;410;48.954;9.474;2023-10-31T11:16:45;3.17;;;1.37;;
846;SDS011;410;48.954;9.474;2023-10-31T11:18:52;2.47;;;1.37;;
846;SDS011;410;48.954;9.474;2023-10-31T11:20:56;2.90;;;1.23;;
846;SDS011;410;48.954;9.474;2023-10-31T11:23:00;3.87;;;1.20;;
846;SDS011;410;48.954;9.474;2023-10-31T11:25:09;3.40;;;0.90;;
846;SDS011;410;48.954;9.474;2023-10-31T11:27:25;2.50;;;0.90;;
846;SDS011;410;48.954;9.474;2023-10-31T11:29:31;2.63;;;1.13;;
846;SDS011;410;48.954;9.474;2023-10-31T11:31:36;3.77;;;1.33;;
846;SDS011;410;48.954;9.474;2023-10-31T11:33:42;2.83;;;1.50;;
846;SDS011;410;48.954;9.474;2023-10-31T11:35:51;5.53;;;0.90;;
846;SDS011;410;48.954;9.474;2023-10-31T11:38:03;2.40;;;1.30;;
846;SDS011;410;48.954;9.474;2023-10-31T11:40:16;6.70;;;1.30;;
846;SDS011;410;48.954;9.474;2023-10-31T11:42:21;6.70;;;1.50;;
846;SDS011;410;48.954;9.474;2023-10-31T11:44:25;4.17;;;1.10;;
846;SDS011;410;48.954;9.474;2023-10-31T11:46:30;3.03;;;1.30;;
846;SDS011;410;48.954;9.474;2023-10-31T11:48:44;1.87;;;1.20;;
846;SDS011;410;48.954;9.474;2023-10-31T11:50:48;2.40;;;1.00;;
846;SDS011;410;48.954;9.474;2023-10-31T11:53:00;4.90;;;1.00;;
846;SDS011;410;48.954;9.474;2023-10-31T11:55:09;2.40;;;1.33;;
846;SDS011;410;48.954;9.474;2023-10-31T11:57:25;3.67;;;1.20;;
846;SDS011;410;48.954;9.474;2023-10-31T11:59:34;2.63;;;1.40;;
846;SDS011;410;48.954;9.474;2023-10-31T12:01:46;2.50;;;1.10;;
846;SDS011;410;48.954;9.474;2023-10-31T12:03:50;2.70;;;1.17;;
846;SDS011;410;48.954;9.474;2023-10-31T12:05:54;3.13;;;1.10;;
846;SDS011;410;48.954;9.474;2023-10-31T12:07:59;3.10;;;1.17;;
846;SDS011;410;48.954;9.474;2023-10-31T12:10:03;4.23;;;1.00;;
846;SDS011;410;48.954;9.474;2023-10-31T12:12:08;2.10;;;0.83;;
846;SDS011;410;48.954;9.474;2023-10-31T12:14:12;2.73;;;0.93;;
846;SDS011;410;48.954;9.474;2023-10-31T12:16:22;2.00;;;0.97;;
846;SDS011;410;48.954;9.474;2023-10-31T12:18:32;4.83;;;1.43;;
846;SDS011;410;48.954;9.474;2023-10-31T12:20:46;1.97;;;0.77;;
846;SDS011;410;48.954;9.474;2023-10-31T12:23:02;4.30;;;1.07;;
846;SDS011;410;48.954;9.474;2023-10-31T12:25:07;2.97;;;1.27;;
846;SDS011;410;48.954;9.474;2023-10-31T12:27:11;2.10;;;0.97;;
846;SDS011;410;48.954;9.474;2023-10-31T12:29:17;2.50;;;1.07;;
846;SDS011;410;48.954;9.474;2023-10-31T12:31:21;3.00;;;0.93;;
846;SDS011;410;48.954;9.474;2023-10-31T12:33:25;1.80;;;1.20;;
846;SDS011;410;48.954;9.474;2023-10-31T12:35:34;2.43;;;0.90;;
846;SDS011;410;48.954;9.474;2023-10-31T12:37:38;1.30;;;0.67;;
846;SDS011;410;48.954;9.474;2023-10-31T12:39:42;1.87;;;0.80;;
846;SDS011;410;48.954;9.474;2023-10-31T12:41:51;2.97;;;1.00;;
846;SDS011;410;48.954;9.474;2023-10-31T12:43:55;2.70;;;0.87;;
846;SDS011;410;48.954;9.474;2023-10-31T12:46:00;2.70;;;1.10;;
846;SDS011;410;48.954;9.474;2023-10-31T12:48:28;4.53;;;1.50;;
846;SDS011;410;48.954;9.474;2023-10-31T12:50:38;2.53;;;1.30;;
846;SDS011;410;48.954;9.474;2023-10-31T12:52:48;3.47;;;1.00;;
846;SDS011;410;48.954;9.474;2023-10-31T12:54:53;2.53;;;1.73;;
846;SDS011;410;48.954;9.474;2023-10-31T12:56:58;3.17;;;1.57;;
846;SDS011;410;48.954;9.474;2023-10-31T12:59:04;3.80;;;1.80;;
846;SDS011;410;48.954;9.474;2023-10-31T13:01:10;2.73;;;1.00;;
846;SDS011;410;48.954;9.474;2023-10-31T13:03:14;3.00;;;1.30;;
846;SDS011;410;48.954;9.474;2023-10-31T13:05:18;3.10;;;1.00;;
846;SDS011;410;48.954;9.474;2023-10-31T13:07:27;3.20;;;1.17;;
846;SDS011;410;48.954;9.474;2023-10-31T13:09:31;3.03;;;1.70;;
846;SDS011;410;48.954;9.474;2023-10-31T13:11:35;3.97;;;1.70;;
846;SDS011;410;48.954;9.474;2023-10-31T13:13:39;3.43;;;1.60;;
846;SDS011;410;48.954;9.474;2023-10-31T13:15:43;5.00;;;1.77;;
846;SDS011;410;48.954;9.474;2023-10-31T13:17:46;3.70;;;2.00;;
846;SDS011;410;48.954;9.474;2023-10-31T13:19:51;4.30;;;2.00;;
846;SDS011;410;48.954;9.474;2023-10-31T13:21:55;3.70;;;1.63;;
846;SDS011;410;48.954;9.474;2023-10-31T13:24:00;5.60;;;2.20;;